sensor_id;sensor_type;location;lat;lon;timestamp;pressure;altitude;pressure_sealevel;temperature;humidity
49813;BME280;35706;52.100;5.056;2023-02-27T00:01:00;102925.03;;;4.84;62.68
49813;BME280;35706;52.100;5.056;2023-02-27T00:02:00;102919.66;;;4.90;62.89
49813;BME280;35706;52.100;5.056;2023-02-27T00:03:01;102924.31;;;4.81;63.09
49813;BME280;35706;52.100;5.056;2023-02-27T00:04:01;102918.31;;;5.05;62.35
49813;BME280;35706;52.100;5.056;2023-02-27T00:05:01;102921.97;;;5.00;62.25
49813;BME280;35706;52.100;5.056;2023-02-27T00:06:02;102918.47;;;5.01;62.70
49813;BME280;35706;52.100;5.056;2023-02-27T00:07:02;102924.78;;;5.20;62.40
49813;BME280;35706;52.100;5.056;2023-02-27T00:08:02;102923.31;;;5.12;62.00
49813;BME280;35706;52.100;5.056;2023-02-27T00:09:03;102929.00;;;4.98;62.37
49813;BME280;35706;52.100;5.056;2023-02-27T00:10:05;102930.34;;;5.09;62.89
49813;BME280;35706;52.100;5.056;2023-02-27T00:11:05;102922.16;;;5.20;62.01
49813;BME280;35706;52.100;5.056;2023-02-27T00:12:06;102928.03;;;5.27;62.12
49813;BME280;35706;52.100;5.056;2023-02-27T00:13:07;102922.09;;;5.23;61.60
49813;BME280;35706;52.100;5.056;2023-02-27T00:14:09;102927.03;;;5.31;61.51
49813;BME280;35706;52.100;5.056;2023-02-27T00:15:15;102927.59;;;5.41;61.94
49813;BME280;35706;52.100;5.056;2023-02-27T00:16:16;102927.91;;;5.32;61.39
49813;BME280;35706;52.100;5.056;2023-02-27T00:17:16;102926.94;;;5.07;61.93
49813;BME280;35706;52.100;5.056;2023-02-27T00:18:17;102929.34;;;4.87;62.32
49813;BME280;35706;52.100;5.056;2023-02-27T00:19:17;102936.34;;;4.85;62.31
49813;BME280;35706;52.100;5.056;2023-02-27T00:20:18;102924.44;;;5.04;62.03
49813;BME280;35706;52.100;5.056;2023-02-27T00:21:19;102933.41;;;4.96;62.38
49813;BME280;35706;52.100;5.056;2023-02-27T00:22:19;102923.44;;;4.80;62.60
49813;BME280;35706;52.100;5.056;2023-02-27T00:23:19;102922.44;;;4.84;62.82
49813;BME280;35706;52.100;5.056;2023-02-27T00:24:20;102920.59;;;4.60;63.35
49813;BME280;35706;52.100;5.056;2023-02-27T00:25:21;102921.75;;;4.79;63.80
49813;BME280;35706;52.100;5.056;2023-02-27T00:26:22;102923.66;;;5.01;62.46
49813;BME280;35706;52.100;5.056;2023-02-27T00:27:22;102925.78;;;5.16;62.59
49813;BME280;35706;52.100;5.056;2023-02-27T00:28:22;102923.13;;;5.18;61.58
49813;BME280;35706;52.100;5.056;2023-02-27T00:29:23;102918.94;;;5.12;62.26
49813;BME280;35706;52.100;5.056;2023-02-27T00:30:23;102921.25;;;5.23;61.77
49813;BME280;35706;52.100;5.056;2023-02-27T00:31:25;102922.94;;;5.24;61.63
49813;BME280;35706;52.100;5.056;2023-02-27T00:32:26;102916.22;;;5.17;62.31
49813;BME280;35706;52.100;5.056;2023-02-27T00:33:26;102916.63;;;5.04;62.02
49813;BME280;35706;52.100;5.056;2023-02-27T00:34:26;102910.84;;;5.21;62.04
49813;BME280;35706;52.100;5.056;2023-02-27T00:35:27;102913.13;;;5.30;61.17
49813;BME280;35706;52.100;5.056;2023-02-27T00:36:27;102906.53;;;5.20;61.64
49813;BME280;35706;52.100;5.056;2023-02-27T00:37:27;102910.69;;;5.26;61.69
49813;BME280;35706;52.100;5.056;2023-02-27T00:38:28;102912.50;;;5.24;61.31
49813;BME280;35706;52.100;5.056;2023-02-27T00:39:28;102915.84;;;5.01;61.53
49813;BME280;35706;52.100;5.056;2023-02-27T00:40:29;102913.19;;;5.02;61.77
49813;BME280;35706;52.100;5.056;2023-02-27T00:41:29;102912.81;;;5.15;61.56
49813;BME280;35706;52.100;5.056;2023-02-27T00:42:29;102911.25;;;5.09;61.59
49813;BME280;35706;52.100;5.056;2023-02-27T00:43:31;102907.25;;;5.25;61.56
49813;BME280;35706;52.100;5.056;2023-02-27T00:44:31;102908.03;;;5.27;61.28
49813;BME280;35706;52.100;5.056;2023-02-27T00:45:32;102908.66;;;5.36;61.47
49813;BME280;35706;52.100;5.056;2023-02-27T00:46:32;102912.31;;;5.30;61.91
49813;BME280;35706;52.100;5.056;2023-02-27T00:47:33;102904.03;;;5.17;61.49
49813;BME280;35706;52.100;5.056;2023-02-27T00:48:34;102910.88;;;5.20;61.58
49813;BME280;35706;52.100;5.056;2023-02-27T00:49:34;102917.06;;;5.17;61.83
49813;BME280;35706;52.100;5.056;2023-02-27T00:50:34;102914.34;;;4.94;62.14
49813;BME280;35706;52.100;5.056;2023-02-27T00:51:34;102919.56;;;4.94;62.69
49813;BME280;35706;52.100;5.056;2023-02-27T00:52:35;102918.34;;;4.77;62.93
49813;BME280;35706;52.100;5.056;2023-02-27T00:53:35;102909.28;;;4.89;62.33
49813;BME280;35706;52.100;5.056;2023-02-27T00:54:35;102912.97;;;4.82;62.84
49813;BME280;35706;52.100;5.056;2023-02-27T00:55:36;102916.19;;;4.90;62.58
49813;BME280;35706;52.100;5.056;2023-02-27T00:56:36;102912.63;;;4.93;62.59
49813;BME280;35706;52.100;5.056;2023-02-27T00:57:36;102917.91;;;4.91;62.69
49813;BME280;35706;52.100;5.056;2023-02-27T00:58:38;102907.28;;;4.97;62.78
49813;BME280;35706;52.100;5.056;2023-02-27T00:59:38;102910.97;;;4.90;62.88
49813;BME280;35706;52.100;5.056;2023-02-27T01:00:39;102912.44;;;4.99;62.59
49813;BME280;35706;52.100;5.056;2023-02-27T01:01:39;102920.03;;;5.06;62.08
49813;BME280;35706;52.100;5.056;2023-02-27T01:02:39;102909.44;;;5.11;61.69
49813;BME280;35706;52.100;5.056;2023-02-27T01:03:40;102915.97;;;4.98;62.37
49813;BME280;35706;52.100;5.056;2023-02-27T01:04:40;102911.34;;;5.06;62.09
49813;BME280;35706;52.100;5.056;2023-02-27T01:05:40;102915.50;;;5.12;61.80
49813;BME280;35706;52.100;5.056;2023-02-27T01:06:41;102916.56;;;5.06;62.44
49813;BME280;35706;52.100;5.056;2023-02-27T01:07:41;102918.91;;;4.87;62.44
49813;BME280;35706;52.100;5.056;2023-02-27T01:08:41;102922.91;;;4.97;62.57
49813;BME280;35706;52.100;5.056;2023-02-27T01:09:42;102915.78;;;5.04;62.04
49813;BME280;35706;52.100;5.056;2023-02-27T01:10:42;102920.38;;;4.96;62.35
49813;BME280;35706;52.100;5.056;2023-02-27T01:11:43;102917.63;;;5.00;62.18
49813;BME280;35706;52.100;5.056;2023-02-27T01:12:43;102922.59;;;5.08;62.21
49813;BME280;35706;52.100;5.056;2023-02-27T01:13:43;102912.44;;;4.99;61.61
49813;BME280;35706;52.100;5.056;2023-02-27T01:14:45;102916.50;;;5.07;61.76
49813;BME280;35706;52.100;5.056;2023-02-27T01:15:45;102915.03;;;4.99;61.64
49813;BME280;35706;52.100;5.056;2023-02-27T01:16:46;102923.03;;;4.66;62.49
49813;BME280;35706;52.100;5.056;2023-02-27T01:17:46;102922.13;;;4.37;63.55
49813;BME280;35706;52.100;5.056;2023-02-27T01:18:48;102916.59;;;4.76;63.77
49813;BME280;35706;52.100;5.056;2023-02-27T01:19:48;102916.22;;;4.88;62.88
49813;BME280;35706;52.100;5.056;2023-02-27T01:20:52;102912.63;;;4.93;62.26
49813;BME280;35706;52.100;5.056;2023-02-27T01:21:53;102918.34;;;4.77;61.94
49813;BME280;35706;52.100;5.056;2023-02-27T01:22:53;102916.81;;;4.70;62.40
49813;BME280;35706;52.100;5.056;2023-02-27T01:23:53;102908.59;;;4.82;62.84
49813;BME280;35706;52.100;5.056;2023-02-27T01:24:54;102911.06;;;4.59;62.93
49813;BME280;35706;52.100;5.056;2023-02-27T01:25:54;102907.34;;;4.38;63.56
49813;BME280;35706;52.100;5.056;2023-02-27T01:26:54;102917.72;;;4.39;63.94
49813;BME280;35706;52.100;5.056;2023-02-27T01:27:55;102908.81;;;4.46;63.79
49813;BME280;35706;52.100;5.056;2023-02-27T01:28:55;102913.59;;;4.62;63.93
49813;BME280;35706;52.100;5.056;2023-02-27T01:29:55;102912.22;;;4.78;63.15
49813;BME280;35706;52.100;5.056;2023-02-27T01:30:55;102912.28;;;4.77;62.60
49813;BME280;35706;52.100;5.056;2023-02-27T01:31:56;102917.53;;;4.75;63.12
49813;BME280;35706;52.100;5.056;2023-02-27T01:32:56;102914.81;;;4.78;62.66
49813;BME280;35706;52.100;5.056;2023-02-27T01:33:56;102915.56;;;4.82;62.78
49813;BME280;35706;52.100;5.056;2023-02-27T01:34:57;102909.84;;;4.71;62.79
49813;BME280;35706;52.100;5.056;2023-02-27T01:35:57;102914.59;;;4.58;62.97
49813;BME280;35706;52.100;5.056;2023-02-27T01:36:57;102915.72;;;4.49;63.43
49813;BME280;35706;52.100;5.056;2023-02-27T01:37:57;102917.84;;;4.64;63.26
49813;BME280;35706;52.100;5.056;2023-02-27T01:38:58;102916.81;;;4.70;62.76
49813;BME280;35706;52.100;5.056;2023-02-27T01:39:58;102911.63;;;4.70;63.01
49813;BME280;35706;52.100;5.056;2023-02-27T01:40:58;102916.63;;;4.46;62.73
49813;BME280;35706;52.100;5.056;2023-02-27T01:41:59;102914.16;;;4.72;63.04
49813;BME280;35706;52.100;5.056;2023-02-27T01:43:00;102908.41;;;4.88;62.32
49813;BME280;35706;52.100;5.056;2023-02-27T01:44:05;102902.31;;;4.89;62.75
49813;BME280;35706;52.100;5.056;2023-02-27T01:45:23;102900.41;;;4.95;61.72
49813;BME280;35706;52.100;5.056;2023-02-27T01:46:26;102903.94;;;4.94;62.03
49813;BME280;35706;52.100;5.056;2023-02-27T01:47:27;102896.19;;;4.90;62.26
49813;BME280;35706;52.100;5.056;2023-02-27T01:48:30;102903.06;;;4.93;61.78
49813;BME280;35706;52.100;5.056;2023-02-27T01:49:33;102896.03;;;4.95;62.06
49813;BME280;35706;52.100;5.056;2023-02-27T01:50:35;102905.13;;;4.83;61.63
49813;BME280;35706;52.100;5.056;2023-02-27T01:51:44;102908.06;;;4.73;62.67
49813;BME280;35706;52.100;5.056;2023-02-27T01:52:50;102893.03;;;4.81;62.54
49813;BME280;35706;52.100;5.056;2023-02-27T01:53:52;102899.31;;;4.74;62.51
49813;BME280;35706;52.100;5.056;2023-02-27T01:54:53;102905.06;;;4.85;62.19
49813;BME280;35706;52.100;5.056;2023-02-27T01:55:58;102908.41;;;4.88;62.22
49813;BME280;35706;52.100;5.056;2023-02-27T01:56:59;102901.22;;;4.97;62.34
49813;BME280;35706;52.100;5.056;2023-02-27T01:58:04;102904.38;;;5.06;62.00
49813;BME280;35706;52.100;5.056;2023-02-27T01:59:06;102899.44;;;4.97;61.85
49813;BME280;35706;52.100;5.056;2023-02-27T02:00:08;102902.66;;;5.05;61.51
49813;BME280;35706;52.100;5.056;2023-02-27T02:01:09;102899.84;;;5.12;61.74
49813;BME280;35706;52.100;5.056;2023-02-27T02:02:16;102895.38;;;4.88;61.10
49813;BME280;35706;52.100;5.056;2023-02-27T02:03:34;102901.34;;;4.36;63.07
49813;BME280;35706;52.100;5.056;2023-02-27T02:04:38;102899.38;;;4.44;63.06
49813;BME280;35706;52.100;5.056;2023-02-27T02:05:38;102900.84;;;4.23;63.67
49813;BME280;35706;52.100;5.056;2023-02-27T02:06:41;102899.81;;;4.28;63.70
49813;BME280;35706;52.100;5.056;2023-02-27T02:07:43;102899.53;;;4.38;63.29
49813;BME280;35706;52.100;5.056;2023-02-27T02:08:47;102904.38;;;4.50;63.12
49813;BME280;35706;52.100;5.056;2023-02-27T02:09:52;102898.00;;;4.60;62.94
49813;BME280;35706;52.100;5.056;2023-02-27T02:10:54;102891.88;;;4.61;63.26
49813;BME280;35706;52.100;5.056;2023-02-27T02:11:58;102897.09;;;4.61;62.84
49813;BME280;35706;52.100;5.056;2023-02-27T02:12:59;102895.50;;;4.57;62.79
49813;BME280;35706;52.100;5.056;2023-02-27T02:14:00;102892.91;;;4.57;62.69
49813;BME280;35706;52.100;5.056;2023-02-27T02:15:02;102902.25;;;4.63;62.33
49813;BME280;35706;52.100;5.056;2023-02-27T02:16:33;102900.72;;;4.57;63.16
49813;BME280;35706;52.100;5.056;2023-02-27T02:18:07;102898.84;;;4.61;63.07
49813;BME280;35706;52.100;5.056;2023-02-27T02:26:30;102908.47;;;4.59;63.08
49813;BME280;35706;52.100;5.056;2023-02-27T02:27:44;102907.03;;;4.48;63.40
49813;BME280;35706;52.100;5.056;2023-02-27T02:31:49;102900.94;;;4.49;62.88
49813;BME280;35706;52.100;5.056;2023-02-27T02:40:59;102899.78;;;4.30;63.71
49813;BME280;35706;52.100;5.056;2023-02-27T02:42:14;102906.19;;;4.18;64.12
49813;BME280;35706;52.100;5.056;2023-02-27T02:44:26;102908.31;;;4.04;64.61
49813;BME280;35706;52.100;5.056;2023-02-27T02:50:29;102912.72;;;4.02;64.60
49813;BME280;35706;52.100;5.056;2023-02-27T02:51:33;102905.81;;;4.01;64.36
49813;BME280;35706;52.100;5.056;2023-02-27T02:54:06;102912.66;;;4.05;64.91
49813;BME280;35706;52.100;5.056;2023-02-27T02:55:15;102907.78;;;4.24;64.55
49813;BME280;35706;52.100;5.056;2023-02-27T02:56:34;102915.06;;;4.42;64.33
49813;BME280;35706;52.100;5.056;2023-02-27T02:59:16;102917.44;;;4.19;64.94
49813;BME280;35706;52.100;5.056;2023-02-27T03:00:36;102906.72;;;4.29;65.21
49813;BME280;35706;52.100;5.056;2023-02-27T03:01:46;102910.75;;;4.40;64.65
49813;BME280;35706;52.100;5.056;2023-02-27T03:02:57;102906.16;;;4.20;64.45
49813;BME280;35706;52.100;5.056;2023-02-27T03:05:28;102904.94;;;4.32;64.19
49813;BME280;35706;52.100;5.056;2023-02-27T03:06:33;102906.69;;;4.31;64.05
49813;BME280;35706;52.100;5.056;2023-02-27T03:07:47;102908.28;;;4.37;64.11
49813;BME280;35706;52.100;5.056;2023-02-27T03:08:54;102906.53;;;4.36;63.31
49813;BME280;35706;52.100;5.056;2023-02-27T03:10:03;102909.72;;;4.17;64.25
49813;BME280;35706;52.100;5.056;2023-02-27T03:11:07;102910.38;;;4.24;64.18
49813;BME280;35706;52.100;5.056;2023-02-27T03:12:10;102909.03;;;4.40;64.16
49813;BME280;35706;52.100;5.056;2023-02-27T03:13:20;102910.63;;;4.44;64.34
49813;BME280;35706;52.100;5.056;2023-02-27T03:14:38;102910.44;;;4.51;63.31
49813;BME280;35706;52.100;5.056;2023-02-27T03:15:49;102911.25;;;4.23;63.73
49813;BME280;35706;52.100;5.056;2023-02-27T03:16:57;102909.22;;;4.34;63.88
49813;BME280;35706;52.100;5.056;2023-02-27T03:18:07;102908.78;;;4.18;64.50
49813;BME280;35706;52.100;5.056;2023-02-27T03:19:20;102907.28;;;4.11;64.58
49813;BME280;35706;52.100;5.056;2023-02-27T03:20:25;102907.91;;;4.19;64.36
49813;BME280;35706;52.100;5.056;2023-02-27T03:21:34;102911.25;;;4.23;64.28
49813;BME280;35706;52.100;5.056;2023-02-27T03:22:39;102908.72;;;4.21;64.27
49813;BME280;35706;52.100;5.056;2023-02-27T03:23:46;102909.72;;;4.17;64.04
49813;BME280;35706;52.100;5.056;2023-02-27T03:24:52;102909.63;;;4.19;64.00
49813;BME280;35706;52.100;5.056;2023-02-27T03:25:54;102917.59;;;4.14;64.54
49813;BME280;35706;52.100;5.056;2023-02-27T03:26:56;102911.81;;;4.04;64.66
49813;BME280;35706;52.100;5.056;2023-02-27T03:28:07;102913.94;;;3.90;64.79
49813;BME280;35706;52.100;5.056;2023-02-27T03:29:16;102911.00;;;4.02;64.79
49813;BME280;35706;52.100;5.056;2023-02-27T03:30:27;102910.00;;;4.06;65.06
49813;BME280;35706;52.100;5.056;2023-02-27T03:31:53;102904.22;;;3.95;64.88
49813;BME280;35706;52.100;5.056;2023-02-27T03:34:39;102905.81;;;3.70;66.23
49813;BME280;35706;52.100;5.056;2023-02-27T03:39:48;102911.09;;;3.98;64.74
49813;BME280;35706;52.100;5.056;2023-02-27T03:41:10;102906.59;;;4.04;64.95
49813;BME280;35706;52.100;5.056;2023-02-27T03:44:39;102895.25;;;4.37;64.20
49813;BME280;35706;52.100;5.056;2023-02-27T03:46:09;102893.50;;;4.37;64.00
49813;BME280;35706;52.100;5.056;2023-02-27T03:47:10;102891.22;;;4.26;64.10
49813;BME280;35706;52.100;5.056;2023-02-27T03:48:11;102893.84;;;4.25;64.16
49813;BME280;35706;52.100;5.056;2023-02-27T03:49:11;102899.06;;;4.25;63.62
49813;BME280;35706;52.100;5.056;2023-02-27T03:50:12;102902.63;;;4.21;64.57
49813;BME280;35706;52.100;5.056;2023-02-27T03:51:16;102891.16;;;4.28;64.40
49813;BME280;35706;52.100;5.056;2023-02-27T03:52:19;102892.00;;;4.28;64.09
49813;BME280;35706;52.100;5.056;2023-02-27T03:55:02;102894.44;;;4.35;64.13
49813;BME280;35706;52.100;5.056;2023-02-27T03:56:06;102891.84;;;4.35;63.76
49813;BME280;35706;52.100;5.056;2023-02-27T03:57:08;102890.13;;;4.34;63.69
49813;BME280;35706;52.100;5.056;2023-02-27T03:58:08;102891.03;;;4.33;63.94
49813;BME280;35706;52.100;5.056;2023-02-27T03:59:09;102896.06;;;4.39;64.62
49813;BME280;35706;52.100;5.056;2023-02-27T04:00:14;102901.34;;;4.36;64.66
49813;BME280;35706;52.100;5.056;2023-02-27T04:01:15;102903.03;;;4.38;64.74
49813;BME280;35706;52.100;5.056;2023-02-27T04:02:16;102896.28;;;4.31;65.11
49813;BME280;35706;52.100;5.056;2023-02-27T04:03:17;102896.91;;;4.39;64.59
49813;BME280;35706;52.100;5.056;2023-02-27T04:04:18;102901.59;;;4.28;64.13
49813;BME280;35706;52.100;5.056;2023-02-27T04:05:19;102906.69;;;4.31;63.96
49813;BME280;35706;52.100;5.056;2023-02-27T04:06:20;102908.31;;;4.35;64.49
49813;BME280;35706;52.100;5.056;2023-02-27T04:08:08;102908.41;;;4.32;64.57
49813;BME280;35706;52.100;5.056;2023-02-27T04:09:19;102902.53;;;4.25;64.72
49813;BME280;35706;52.100;5.056;2023-02-27T04:10:31;102906.81;;;4.26;64.94
49813;BME280;35706;52.100;5.056;2023-02-27T04:12:09;102908.34;;;4.34;64.03
49813;BME280;35706;52.100;5.056;2023-02-27T04:13:28;102907.53;;;4.32;64.01
49813;BME280;35706;52.100;5.056;2023-02-27T04:14:42;102908.41;;;4.32;63.96
49813;BME280;35706;52.100;5.056;2023-02-27T04:16:09;102909.28;;;4.31;64.03
49813;BME280;35706;52.100;5.056;2023-02-27T04:17:25;102916.28;;;4.29;63.69
49813;BME280;35706;52.100;5.056;2023-02-27T04:18:43;102920.06;;;4.19;64.13
49813;BME280;35706;52.100;5.056;2023-02-27T04:22:35;102921.47;;;3.99;64.48
49813;BME280;35706;52.100;5.056;2023-02-27T04:23:40;102928.34;;;3.69;64.78
49813;BME280;35706;52.100;5.056;2023-02-27T04:28:44;102928.50;;;3.96;65.18
49813;BME280;35706;52.100;5.056;2023-02-27T04:31:05;102934.41;;;4.02;64.93
49813;BME280;35706;52.100;5.056;2023-02-27T04:32:21;102931.81;;;4.02;64.65
49813;BME280;35706;52.100;5.056;2023-02-27T04:34:38;102941.59;;;3.93;65.11
49813;BME280;35706;52.100;5.056;2023-02-27T04:35:56;102938.63;;;3.74;65.55
49813;BME280;35706;52.100;5.056;2023-02-27T04:37:02;102938.91;;;3.63;65.94
49813;BME280;35706;52.100;5.056;2023-02-27T04:38:43;102940.59;;;3.65;66.32
49813;BME280;35706;52.100;5.056;2023-02-27T04:39:52;102938.75;;;3.69;65.72
49813;BME280;35706;52.100;5.056;2023-02-27T04:40:58;102938.75;;;3.69;66.34
49813;BME280;35706;52.100;5.056;2023-02-27T04:42:31;102940.50;;;3.34;66.29
49813;BME280;35706;52.100;5.056;2023-02-27T04:43:33;102946.09;;;3.53;66.17
49813;BME280;35706;52.100;5.056;2023-02-27T04:44:37;102944.94;;;3.65;66.80
49813;BME280;35706;52.100;5.056;2023-02-27T04:45:39;102946.63;;;3.66;66.06
49813;BME280;35706;52.100;5.056;2023-02-27T04:46:41;102939.53;;;3.73;65.58
49813;BME280;35706;52.100;5.056;2023-02-27T04:47:48;102941.28;;;3.72;65.59
49813;BME280;35706;52.100;5.056;2023-02-27T04:48:55;102937.69;;;3.76;65.50
49813;BME280;35706;52.100;5.056;2023-02-27T04:50:02;102941.06;;;3.80;65.44
49813;BME280;35706;52.100;5.056;2023-02-27T04:51:12;102944.41;;;3.85;64.90
49813;BME280;35706;52.100;5.056;2023-02-27T04:52:24;102948.47;;;3.62;65.96
49813;BME280;35706;52.100;5.056;2023-02-27T04:53:54;102950.94;;;3.69;65.79
49813;BME280;35706;52.100;5.056;2023-02-27T04:56:11;102943.84;;;3.74;65.72
49813;BME280;35706;52.100;5.056;2023-02-27T04:57:17;102947.25;;;3.76;65.57
49813;BME280;35706;52.100;5.056;2023-02-27T04:58:22;102941.19;;;3.77;65.75
49813;BME280;35706;52.100;5.056;2023-02-27T04:59:27;102948.88;;;3.80;65.08
49813;BME280;35706;52.100;5.056;2023-02-27T05:00:30;102951.66;;;3.74;65.53
49813;BME280;35706;52.100;5.056;2023-02-27T05:01:40;102950.00;;;3.70;65.38
49813;BME280;35706;52.100;5.056;2023-02-27T05:02:45;102947.38;;;3.71;65.40
49813;BME280;35706;52.100;5.056;2023-02-27T05:03:49;102950.81;;;3.72;65.56
49813;BME280;35706;52.100;5.056;2023-02-27T05:04:55;102944.69;;;3.74;65.72
49813;BME280;35706;52.100;5.056;2023-02-27T05:05:59;102942.88;;;3.78;65.60
49813;BME280;35706;52.100;5.056;2023-02-27T05:07:02;102947.97;;;3.81;65.66
49813;BME280;35706;52.100;5.056;2023-02-27T05:08:12;102951.34;;;3.84;65.58
49813;BME280;35706;52.100;5.056;2023-02-27T05:09:23;102949.56;;;3.86;65.20
49813;BME280;35706;52.100;5.056;2023-02-27T05:12:04;102943.41;;;3.91;65.35
49813;BME280;35706;52.100;5.056;2023-02-27T05:13:14;102947.63;;;3.95;65.21
49813;BME280;35706;52.100;5.056;2023-02-27T05:14:19;102948.47;;;3.95;65.06
49813;BME280;35706;52.100;5.056;2023-02-27T05:15:30;102946.97;;;3.86;65.12
49813;BME280;35706;52.100;5.056;2023-02-27T05:16:42;102944.41;;;3.85;64.79
49813;BME280;35706;52.100;5.056;2023-02-27T05:17:56;102947.09;;;3.82;65.17
49813;BME280;35706;52.100;5.056;2023-02-27T05:18:59;102947.94;;;3.82;65.15
49813;BME280;35706;52.100;5.056;2023-02-27T05:20:01;102948.69;;;3.87;65.31
49813;BME280;35706;52.100;5.056;2023-02-27T05:21:20;102947.66;;;3.93;64.75
49813;BME280;35706;52.100;5.056;2023-02-27T05:23:43;102956.56;;;3.84;64.94
49813;BME280;35706;52.100;5.056;2023-02-27T05:25:11;102952.47;;;3.76;65.27
49813;BME280;35706;52.100;5.056;2023-02-27T05:26:19;102956.13;;;3.69;65.53
49813;BME280;35706;52.100;5.056;2023-02-27T05:27:34;102963.88;;;3.36;66.57
49813;BME280;35706;52.100;5.056;2023-02-27T05:29:52;102958.53;;;3.04;68.02
49813;BME280;35706;52.100;5.056;2023-02-27T05:31:00;102958.09;;;3.24;67.20
49813;BME280;35706;52.100;5.056;2023-02-27T05:32:10;102964.66;;;3.39;67.31
49813;BME280;35706;52.100;5.056;2023-02-27T05:33:30;102963.75;;;3.40;67.09
49813;BME280;35706;52.100;5.056;2023-02-27T05:34:36;102959.09;;;3.53;66.55
49813;BME280;35706;52.100;5.056;2023-02-27T05:35:44;102958.81;;;3.30;66.65
49813;BME280;35706;52.100;5.056;2023-02-27T05:36:52;102971.59;;;3.01;68.26
49813;BME280;35706;52.100;5.056;2023-02-27T05:39:05;102968.44;;;2.89;68.32
49813;BME280;35706;52.100;5.056;2023-02-27T05:40:10;102959.84;;;2.85;68.91
49813;BME280;35706;52.100;5.056;2023-02-27T05:41:16;102963.84;;;3.00;68.36
49813;BME280;35706;52.100;5.056;2023-02-27T05:42:29;102962.16;;;2.97;68.95
49813;BME280;35706;52.100;5.056;2023-02-27T05:43:51;102961.63;;;3.22;68.09
49813;BME280;35706;52.100;5.056;2023-02-27T05:45:02;102974.75;;;3.16;67.78
49813;BME280;35706;52.100;5.056;2023-02-27T05:46:07;102963.31;;;3.23;68.17
49813;BME280;35706;52.100;5.056;2023-02-27T05:47:15;102970.06;;;3.30;67.95
49813;BME280;35706;52.100;5.056;2023-02-27T05:48:25;102969.97;;;3.35;67.95
49813;BME280;35706;52.100;5.056;2023-02-27T05:49:37;102970.94;;;3.31;68.00
49813;BME280;35706;52.100;5.056;2023-02-27T05:50:40;102974.75;;;3.16;67.87
49813;BME280;35706;52.100;5.056;2023-02-27T05:51:45;102974.34;;;2.95;68.27
49813;BME280;35706;52.100;5.056;2023-02-27T05:52:48;102969.00;;;3.01;68.46
49813;BME280;35706;52.100;5.056;2023-02-27T05:54:00;102976.28;;;3.24;68.76
49813;BME280;35706;52.100;5.056;2023-02-27T05:55:16;102974.41;;;3.30;68.84
49813;BME280;35706;52.100;5.056;2023-02-27T05:56:18;102982.31;;;3.25;68.58
49813;BME280;35706;52.100;5.056;2023-02-27T05:57:41;102979.69;;;3.26;68.13
49813;BME280;35706;52.100;5.056;2023-02-27T05:59:00;102977.97;;;3.25;68.27
49813;BME280;35706;52.100;5.056;2023-02-27T06:00:12;102982.28;;;3.26;68.27
49813;BME280;35706;52.100;5.056;2023-02-27T06:01:14;102980.19;;;3.05;68.76
49813;BME280;35706;52.100;5.056;2023-02-27T06:02:14;102982.66;;;3.11;68.83
49813;BME280;35706;52.100;5.056;2023-02-27T06:03:16;102987.91;;;3.08;69.25
49813;BME280;35706;52.100;5.056;2023-02-27T06:04:17;102984.25;;;2.78;69.65
49813;BME280;35706;52.100;5.056;2023-02-27T06:05:18;102987.78;;;2.75;70.18
49813;BME280;35706;52.100;5.056;2023-02-27T06:06:18;102981.97;;;3.03;69.44
49813;BME280;35706;52.100;5.056;2023-02-27T06:07:19;102987.03;;;3.09;69.43
49813;BME280;35706;52.100;5.056;2023-02-27T06:08:21;102986.47;;;2.95;69.54
49813;BME280;35706;52.100;5.056;2023-02-27T06:09:21;102985.28;;;3.10;69.78
49813;BME280;35706;52.100;5.056;2023-02-27T06:10:22;102989.19;;;2.90;70.06
49813;BME280;35706;52.100;5.056;2023-02-27T06:11:23;102988.81;;;3.07;69.95
49813;BME280;35706;52.100;5.056;2023-02-27T06:12:23;102992.06;;;3.15;69.34
49813;BME280;35706;52.100;5.056;2023-02-27T06:13:24;102999.97;;;3.11;69.30
49813;BME280;35706;52.100;5.056;2023-02-27T06:14:25;102998.41;;;3.03;69.24
49813;BME280;35706;52.100;5.056;2023-02-27T06:15:26;103003.34;;;3.14;69.20
49813;BME280;35706;52.100;5.056;2023-02-27T06:16:27;102991.09;;;3.19;68.64
49813;BME280;35706;52.100;5.056;2023-02-27T06:17:28;102997.25;;;3.15;68.81
49813;BME280;35706;52.100;5.056;2023-02-27T06:18:28;102996.41;;;3.15;68.69
49813;BME280;35706;52.100;5.056;2023-02-27T06:19:28;102999.94;;;3.12;69.27
49813;BME280;35706;52.100;5.056;2023-02-27T06:20:29;103007.59;;;3.18;69.41
49813;BME280;35706;52.100;5.056;2023-02-27T06:21:29;103005.13;;;3.12;69.53
49813;BME280;35706;52.100;5.056;2023-02-27T06:22:29;103010.78;;;2.92;69.26
49813;BME280;35706;52.100;5.056;2023-02-27T06:23:29;103011.78;;;2.85;70.27
49813;BME280;35706;52.100;5.056;2023-02-27T06:24:30;103013.19;;;3.00;70.05
49813;BME280;35706;52.100;5.056;2023-02-27T06:25:30;103013.84;;;3.11;69.50
49813;BME280;35706;52.100;5.056;2023-02-27T06:26:31;103016.50;;;3.08;69.57
49813;BME280;35706;52.100;5.056;2023-02-27T06:27:31;103011.16;;;3.14;69.24
49813;BME280;35706;52.100;5.056;2023-02-27T06:28:32;103011.97;;;3.16;69.76
49813;BME280;35706;52.100;5.056;2023-02-27T06:29:33;103012.00;;;3.15;68.96
49813;BME280;35706;52.100;5.056;2023-02-27T06:30:34;103018.16;;;3.11;69.40
49813;BME280;35706;52.100;5.056;2023-02-27T06:31:35;103020.97;;;3.01;69.53
49813;BME280;35706;52.100;5.056;2023-02-27T06:32:35;103024.25;;;3.10;69.61
49813;BME280;35706;52.100;5.056;2023-02-27T06:33:35;103025.94;;;3.11;69.30
49813;BME280;35706;52.100;5.056;2023-02-27T06:34:36;103025.91;;;3.14;69.80
49813;BME280;35706;52.100;5.056;2023-02-27T06:35:37;103022.38;;;3.16;69.49
49813;BME280;35706;52.100;5.056;2023-02-27T06:36:37;103022.47;;;3.12;69.61
49813;BME280;35706;52.100;5.056;2023-02-27T06:37:37;103029.31;;;3.16;69.26
49813;BME280;35706;52.100;5.056;2023-02-27T06:38:38;103024.38;;;3.05;69.59
49813;BME280;35706;52.100;5.056;2023-02-27T06:39:38;103030.38;;;3.07;69.48